• Join FlightAware (Why Join?)
  • Login
  • US Flag 
11:03PM EDT


 

Airport Tracker/Info


-or-


 

Live Flight TrackerFlight Track Log ✈ CSN6763 ✈ 27-Mar-2014 ✈ ZGSZ / SZX - ZHLY / LYA

Flight Track Log - Related Links

Times and Time Zones

All times are in EDT time to prevent confusion due to time zone crossing. See the CSN6763 flight status page for this flight to view local times or setup timezone preferences in your user account.

Time Position Orientation Groundspeed Altitude Reporting Facility
EDT Latitude Longitude Course Direction KTS MPH feet Rate Location/Type
02:49AM 22.7547 113.8002 354° North  Level Estimated
02:50AM 22.8700 113.7880 354° North  Level Estimated
02:51AM 22.9852 113.7758 354° North  Level Estimated
02:52AM 23.1005 113.7636 354° North  Level Estimated
02:53AM 23.2157 113.7514 354° North  Level Estimated
02:54AM 23.3310 113.7391 354° North  Level Estimated
02:55AM 23.4462 113.7268 354° North  Level Estimated
02:56AM 23.5615 113.7145 354° North  Level Estimated
02:57AM 23.6767 113.7021 354° North  Level Estimated
02:58AM 23.7888 113.6901 354° North  Level Estimated
02:59AM 23.9008 113.6781 354° North  Level Estimated
03:00AM 24.0128 113.6660 354° North  Level Estimated
03:01AM 24.1249 113.6540 354° North  Level Estimated
03:02AM 24.2369 113.6419 354° North  Level Estimated
03:03AM 24.3490 113.6297 354° North  Level Estimated
03:04AM 24.4610 113.6176 354° North  Level Estimated
03:05AM 24.5730 113.6054 354° North  Level Estimated
03:06AM 24.6851 113.5932 354° North  Level Estimated
03:07AM 24.7971 113.5810 354° North  Level Estimated
03:08AM 24.9091 113.5688 354° North  Level Estimated
03:09AM 25.0212 113.5565 354° North  Level Estimated
03:10AM 25.1332 113.5443 354° North  Level Estimated
03:11AM 25.2453 113.5320 354° North  Level Estimated
03:12AM 25.3573 113.5197 354° North  Level Estimated
03:13AM 25.4693 113.5073 354° North  Level Estimated
03:14AM 25.5813 113.4949 354° North  Level Estimated
03:15AM 25.6934 113.4826 354° North  Level Estimated
03:16AM 25.8054 113.4702 354° North  Level Estimated
03:17AM 25.9174 113.4577 354° North  Level Estimated
03:18AM 26.0294 113.4453 354° North  Level Estimated
03:19AM 26.1415 113.4328 354° North  Level Estimated
03:20AM 26.2535 113.4203 354° North  Level Estimated
03:21AM 26.3655 113.4077 354° North  Level Estimated
03:22AM 26.4775 113.3952 354° North  Level Estimated
03:23AM 26.5895 113.3826 354° North  Level Estimated
03:24AM 26.7016 113.3700 354° North  Level Estimated
03:25AM 26.8136 113.3574 354° North  Level Estimated
03:26AM 26.9256 113.3447 354° North  Level Estimated
03:27AM 27.0376 113.3320 354° North  Level Estimated
03:28AM 27.1496 113.3193 354° North  Level Estimated
03:29AM 27.2616 113.3066 354° North  Level Estimated
03:30AM 27.3736 113.2938 354° North  Level Estimated
03:31AM 27.4856 113.2811 354° North  Level Estimated
03:32AM 27.5977 113.2682 354° North  Level Estimated
03:33AM 27.7097 113.2554 354° North  Level Estimated
03:34AM 27.8217 113.2426 354° North  Level Estimated
03:35AM 27.9337 113.2297 354° North  Level Estimated
03:36AM 28.0457 113.2168 354° North  Level Estimated
03:37AM 28.1577 113.2038 354° North  Level Estimated
03:38AM 28.2697 113.1908 354° North  Level Estimated
03:39AM 28.3817 113.1778 354° North  Level Estimated
03:40AM 28.4937 113.1648 354° North  Level Estimated
03:41AM 28.6057 113.1518 354° North  Level Estimated
03:42AM 28.7177 113.1387 354° North  Level Estimated
03:43AM 28.8297 113.1256 354° North  Level Estimated
03:44AM 28.9417 113.1125 354° North  Level Estimated
03:45AM 29.0536 113.0993 354° North  Level Estimated
03:46AM 29.1656 113.0861 354° North  Level Estimated
03:47AM 29.2776 113.0729 354° North  Level Estimated
03:48AM 29.3896 113.0596 354° North  Level Estimated
03:49AM 29.5016 113.0463 354° North  Level Estimated
03:50AM 29.6136 113.0331 354° North  Level Estimated
03:51AM 29.7256 113.0197 354° North  Level Estimated
03:52AM 29.8376 113.0063 354° North  Level Estimated
03:53AM 29.9495 112.9929 354° North  Level Estimated
03:54AM 30.0615 112.9795 354° North  Level Estimated
03:55AM 30.1735 112.9661 354° North  Level Estimated
03:56AM 30.2855 112.9526 354° North  Level Estimated
03:57AM 30.3975 112.9390 354° North  Level Estimated
03:58AM 30.5094 112.9255 354° North  Level Estimated
03:59AM 30.6214 112.9119 354° North  Level Estimated
04:00AM 30.7334 112.8983 354° North  Level Estimated
04:01AM 30.8454 112.8847 354° North  Level Estimated
04:02AM 30.9573 112.8710 354° North  Level Estimated
04:03AM 31.0693 112.8573 354° North  Level Estimated
04:04AM 31.1812 112.8435 354° North  Level Estimated
04:05AM 31.2932 112.8298 354° North  Level Estimated
04:06AM 31.4052 112.8160 354° North  Level Estimated
04:07AM 31.5171 112.8021 354° North  Level Estimated
04:08AM 31.6291 112.7882 354° North  Level Estimated
04:09AM 31.7411 112.7743 354° North  Level Estimated
04:10AM 31.8530 112.7604 354° North  Level Estimated
04:11AM 31.9650 112.7464 354° North  Level Estimated
04:12AM 32.0769 112.7324 354° North  Level Estimated
04:13AM 32.1889 112.7184 354° North  Level Estimated
04:14AM 32.3008 112.7043 354° North  Level Estimated
04:15AM 32.4128 112.6902 354° North  Level Estimated
04:16AM 32.5247 112.6760 354° North  Level Estimated
04:17AM 32.6367 112.6619 354° North  Level Estimated
04:18AM 32.7486 112.6476 354° North  Level Estimated
04:19AM 32.8606 112.6334 354° North  Level Estimated
04:20AM 32.9725 112.6191 354° North  Level Estimated
04:21AM 33.0844 112.6048 354° North  Level Estimated
04:22AM 33.1964 112.5904 354° North  Level Estimated
04:23AM 33.3083 112.5760 354° North  Level Estimated
04:24AM 33.4203 112.5616 354° North  Level Estimated
04:25AM 33.5322 112.5471 354° North  Level Estimated
04:26AM 33.6441 112.5326 354° North  Level Estimated
04:27AM 33.7561 112.5181 354° North  Level Estimated
04:28AM 33.8680 112.5035 354° North  Level Estimated
04:29AM 33.9799 112.4888 354° North  Level Estimated
04:30AM 34.0918 112.4742 354° North  Level Estimated
04:31AM 34.2038 112.4595 354° North  Level Estimated
04:32AM 34.3157 112.4447 354° North  Level Estimated
04:33AM 34.4276 112.4299 354° North  Level Estimated
04:34AM 34.5395 112.4151 354° North  Level Estimated
04:35AM 34.6514 112.4003 354° North  Level Estimated
04:36AM 34.7411 112.3883 354° North  Level Estimated
04:37AM 34.7411 112.3883 North  Level Estimated
04:38AM 34.7411 112.3883 North  Level Estimated
04:39AM 34.7411 112.3883 North  Level Estimated
04:40AM 34.7411 112.3883 North  Level Estimated
04:41AM 34.7411 112.3883 North  Level Estimated
04:42AM 34.7411 112.3883 North  Level Estimated
04:43AM 34.7411 112.3883 North  Level Estimated
04:44AM 34.7411 112.3883 North  Level Estimated
04:45AM 34.7411 112.3883 North  Level Estimated
04:46AM 34.7411 112.3883 North  Level Estimated
04:47AM 34.7411 112.3883 North  Level Estimated
04:48AM 34.7411 112.3883 North  Level Estimated
04:49AM 34.7411 112.3883 North  Level Estimated
04:50AM 34.7411 112.3883 North  Level Estimated